Time;durP1;ratioP1;P1;durP2;ratioP2;P2;SDS_P1;SDS_P2;PMS_P1;PMS_P2;Temp;Humidity;BMP_temperature;BMP_pressure;BME280_temperature;BME280_humidity;BME280_pressure;Samples;Min_cycle;Max_cycle;Signal;HPM_P1;HPM_P2
2023/07/08 00:00:26;;;;;;;11.82;4.63;;;;;;;20.63;57.95;100003.22;6254656;22;20372;-94
2023/07/08 00:02:52;;;;;;;7.53;4.63;;;;;;;20.69;57.94;99997.31;6151354;23;20008;-94
2023/07/08 00:05:19;;;;;;;7.53;4.70;;;;;;;20.60;58.34;100003.53;6151417;23;20010;-94
2023/07/08 00:07:46;;;;;;;8.73;4.43;;;;;;;20.60;58.09;99999.13;6151041;23;20053;-95
2023/07/08 00:10:23;;;;;;;9.15;4.95;;;;;;;20.50;58.65;99999.25;6254894;22;20008;-94
2023/07/08 00:12:51;;;;;;;5.97;4.10;;;;;;;20.46;58.84;99992.72;6151410;23;20357;-94
2023/07/08 00:15:18;;;;;;;8.20;5.00;;;;;;;20.47;59.00;99993.53;6151410;23;20005;-94
2023/07/08 00:17:43;;;;;;;9.30;5.45;;;;;;;20.31;59.37;99989.91;6254035;22;20015;-94
2023/07/08 00:20:13;;;;;;;6.68;4.60;;;;;;;20.37;59.38;99983.19;6254215;22;20310;-94
2023/07/08 00:22:40;;;;;;;13.50;4.60;;;;;;;20.25;59.72;99989.72;6254209;22;20006;-95
2023/07/08 00:25:07;;;;;;;8.10;4.80;;;;;;;20.34;59.37;99980.91;6254298;22;20005;-95
2023/07/08 00:27:32;;;;;;;7.00;4.68;;;;;;;20.33;59.54;99976.63;6150766;23;20001;-94
2023/07/08 00:30:00;;;;;;;11.20;5.18;;;;;;;20.26;59.80;99970.41;6254759;22;20029;-93
2023/07/08 00:32:25;;;;;;;7.30;4.60;;;;;;;20.24;60.04;99970.56;6254399;22;20467;-94
2023/07/08 00:34:51;;;;;;;8.45;4.78;;;;;;;20.26;59.62;99976.47;6254923;22;19997;-94
2023/07/08 00:37:16;;;;;;;11.07;4.85;;;;;;;20.24;59.84;99961.88;6254198;22;20670;-93
2023/07/08 00:39:41;;;;;;;6.20;4.28;;;;;;;20.26;60.06;99957.28;6150981;22;20040;-95
2023/07/08 00:42:24;;;;;;;7.43;4.25;;;;;;;20.22;59.87;99953.38;6254282;22;20008;-94
2023/07/08 00:44:50;;;;;;;11.43;4.47;;;;;;;20.16;60.18;99954.81;6151085;23;20005;-94
2023/07/08 00:47:15;;;;;;;7.18;4.65;;;;;;;20.22;59.98;99958.63;6253926;22;20092;-93
2023/07/08 00:49:47;;;;;;;10.20;4.60;;;;;;;20.23;59.81;99949.75;6151185;22;20009;-93
2023/07/08 00:52:23;;;;;;;5.72;4.35;;;;;;;20.36;59.49;99954.50;6254269;22;20036;-93
2023/07/08 00:54:53;;;;;;;9.15;4.70;;;;;;;20.26;60.00;99949.44;6254207;22;20010;-93
2023/07/08 00:57:21;;;;;;;8.05;4.82;;;;;;;20.20;60.29;99955.34;6150919;23;20031;-94
2023/07/08 00:59:53;;;;;;;10.15;4.93;;;;;;;20.33;59.61;99965.34;6151508;22;20009;-94
2023/07/08 01:02:21;;;;;;;7.80;4.57;;;;;;;20.38;59.38;99950.75;6254299;22;20435;-93
2023/07/08 01:04:55;;;;;;;8.65;4.78;;;;;;;20.33;59.59;99947.81;6151174;23;20029;-95
2023/07/08 01:07:24;;;;;;;8.27;4.28;;;;;;;20.40;59.59;99950.59;6254050;22;20088;-94
2023/07/08 01:09:58;;;;;;;5.95;3.92;;;;;;;20.50;59.15;99949.44;6253399;22;20017;-95
2023/07/08 01:12:30;;;;;;;9.60;4.18;;;;;;;20.40;59.74;99951.41;6254268;22;20067;-94
2023/07/08 01:14:56;;;;;;;6.63;4.15;;;;;;;20.29;59.95;99946.50;6151139;23;20486;-94
2023/07/08 01:17:23;;;;;;;13.00;5.25;;;;;;;20.41;59.76;99945.19;6150955;23;20028;-95
2023/07/08 01:19:49;;;;;;;9.13;4.00;;;;;;;20.46;59.82;99953.38;6151309;22;20005;-94
2023/07/08 01:22:14;;;;;;;7.75;4.75;;;;;;;20.41;60.08;99947.81;6253782;22;20008;-95
2023/07/08 01:24:44;;;;;;;11.02;4.75;;;;;;;20.52;59.81;99959.78;6254168;22;20009;-93
2023/07/08 01:27:14;;;;;;;6.38;4.28;;;;;;;20.50;59.86;99946.81;6150907;23;19998;-95
2023/07/08 01:29:39;;;;;;;11.13;4.32;;;;;;;20.52;60.07;99944.84;6150562;22;20047;-94
2023/07/08 01:32:05;;;;;;;8.40;4.75;;;;;;;20.56;60.16;99955.03;6253799;22;20033;-95
2023/07/08 01:34:37;;;;;;;9.88;4.65;;;;;;;20.58;59.88;99942.59;6253856;22;20461;-94
2023/07/08 01:37:05;;;;;;;6.97;4.10;;;;;;;20.56;60.36;99940.16;6253600;22;20084;-94
2023/07/08 01:39:32;;;;;;;12.35;4.63;;;;;;;20.57;60.17;99954.88;6253264;22;20092;-94
2023/07/08 01:41:58;;;;;;;14.45;6.45;;;;;;;20.54;60.29;99942.06;6150612;22;20008;-95
2023/07/08 01:44:27;;;;;;;11.38;4.57;;;;;;;20.35;61.09;99945.03;6253885;22;20037;-95
2023/07/08 01:46:55;;;;;;;9.02;4.28;;;;;;;20.37;61.15;99933.41;6253627;22;20010;-94
2023/07/08 01:49:20;;;;;;;12.15;4.57;;;;;;;20.44;61.00;99941.44;6150503;22;20076;-93
2023/07/08 01:51:48;;;;;;;8.63;4.20;;;;;;;20.50;60.97;99941.56;6150623;23;20415;-93
2023/07/08 01:54:13;;;;;;;13.23;4.70;;;;;;;20.52;61.04;99938.78;6150694;23;20440;-94
2023/07/08 01:56:39;;;;;;;9.85;4.35;;;;;;;20.35;61.38;99927.50;6253531;22;20002;-94
2023/07/08 01:59:04;;;;;;;8.73;4.05;;;;;;;20.25;62.08;99932.09;6253066;22;20002;-94
2023/07/08 02:01:29;;;;;;;7.57;4.40;;;;;;;20.21;62.33;99936.00;6150293;22;20012;-94
2023/07/08 02:03:54;;;;;;;7.18;4.07;;;;;;;20.21;62.52;99936.00;6253362;22;20009;-94
2023/07/08 02:06:20;;;;;;;5.28;4.07;;;;;;;20.27;62.30;99941.41;6150371;23;20005;-95
2023/07/08 02:08:45;;;;;;;9.48;4.43;;;;;;;20.20;62.73;99937.00;6150306;23;20432;-95
2023/07/08 02:11:11;;;;;;;9.60;3.97;;;;;;;20.22;62.67;99942.91;6150634;22;20051;-94
2023/07/08 02:13:36;;;;;;;13.73;4.72;;;;;;;20.12;63.37;99926.50;6150294;23;20306;-95
2023/07/08 02:16:01;;;;;;;9.73;4.45;;;;;;;20.11;63.45;99933.53;6253297;22;20012;-94
2023/07/08 02:18:27;;;;;;;9.43;4.28;;;;;;;20.18;63.63;99937.16;6150580;23;20428;-95
2023/07/08 02:20:52;;;;;;;11.55;4.93;;;;;;;20.13;63.47;99928.16;6149664;22;20017;-94
2023/07/08 02:23:18;;;;;;;5.88;3.92;;;;;;;19.98;64.20;99930.59;6252906;22;20084;-93
2023/07/08 02:25:54;;;;;;;10.13;3.72;;;;;;;19.96;64.79;99922.88;6150657;23;20035;-93
2023/07/08 02:28:20;;;;;;;7.35;4.63;;;;;;;19.95;65.08;99923.06;6150109;23;20005;-95
2023/07/08 02:30:48;;;;;;;8.95;4.43;;;;;;;19.95;64.98;99925.69;6150268;22;20024;-94
2023/07/08 02:33:17;;;;;;;8.65;4.53;;;;;;;19.95;65.33;99908.16;6253210;22;20009;-94
2023/07/08 02:35:43;;;;;;;6.43;4.00;;;;;;;20.01;65.46;99917.97;6252735;22;20128;-94
2023/07/08 02:38:08;;;;;;;5.88;4.07;;;;;;;20.03;65.29;99921.25;6252939;22;20012;-94
2023/07/08 02:40:33;;;;;;;7.18;3.88;;;;;;;19.95;65.86;99923.06;6253068;22;20025;-94
2023/07/08 02:42:59;;;;;;;9.32;4.32;;;;;;;19.98;65.64;99918.31;6252708;22;20006;-94
2023/07/08 02:45:24;;;;;;;14.80;4.55;;;;;;;19.91;65.99;99917.31;6150454;23;20047;-94
2023/07/08 02:47:49;;;;;;;11.90;4.60;;;;;;;19.87;66.40;99929.06;6150668;23;20001;-94
2023/07/08 02:50:17;;;;;;;6.22;4.05;;;;;;;19.83;66.67;99933.00;6149853;22;20448;-94
2023/07/08 02:52:42;;;;;;;7.53;4.10;;;;;;;19.83;66.98;99938.25;6149987;22;20025;-93
2023/07/08 02:55:08;;;;;;;6.03;3.92;;;;;;;19.76;67.09;99945.09;6150238;23;20049;-94
2023/07/08 02:57:33;;;;;;;5.30;3.47;;;;;;;19.59;68.16;99938.97;6150358;23;20031;-94
2023/07/08 02:59:58;;;;;;;7.60;3.92;;;;;;;19.64;68.15;99944.53;6150196;22;20005;-94
2023/07/08 03:02:24;;;;;;;7.05;4.03;;;;;;;19.56;68.50;99942.72;6149856;23;20378;-95
2023/07/08 03:04:50;;;;;;;8.77;4.25;;;;;;;19.59;68.63;99937.16;6252336;22;20009;-94
2023/07/08 03:07:16;;;;;;;7.18;3.85;;;;;;;19.69;68.25;99937.06;6150203;23;20025;-94
2023/07/08 03:09:42;;;;;;;8.38;4.10;;;;;;;19.71;68.16;99937.72;6253099;22;20078;-95
2023/07/08 03:12:10;;;;;;;7.63;4.07;;;;;;;19.66;69.02;99943.41;6150243;23;20324;-93
2023/07/08 03:14:36;;;;;;;7.88;4.20;;;;;;;19.55;69.37;99937.63;6253156;22;20055;-95
2023/07/08 03:17:01;;;;;;;7.15;3.92;;;;;;;19.49;69.82;99957.41;6252936;22;20013;-95
2023/07/08 03:19:27;;;;;;;8.73;4.65;;;;;;;19.52;70.24;99964.94;6149985;22;20336;-94
2023/07/08 03:21:52;;;;;;;7.03;4.00;;;;;;;19.44;71.00;99970.16;6253009;22;20561;-94
2023/07/08 03:24:18;;;;;;;7.80;4.03;;;;;;;19.56;70.47;99984.59;6150024;23;20035;-94
2023/07/08 03:26:44;;;;;;;5.82;3.75;;;;;;;19.53;70.73;99979.69;6253039;22;20005;-95
2023/07/08 03:29:19;;;;;;;6.93;4.20;;;;;;;19.46;71.56;99979.50;6149903;22;20009;-95
2023/07/08 03:31:44;;;;;;;10.27;3.95;;;;;;;19.38;72.10;99996.94;6149765;22;20108;-93
2023/07/08 03:34:12;;;;;;;7.90;4.03;;;;;;;19.41;72.21;100001.84;6151031;22;20033;-95
2023/07/08 03:36:48;;;;;;;9.40;4.43;;;;;;;19.45;72.51;100004.00;6254574;22;20371;-95
2023/07/08 03:39:17;;;;;;;9.07;4.63;;;;;;;19.38;73.19;100008.22;6254458;22;20009;-94
2023/07/08 03:41:43;;;;;;;9.95;4.45;;;;;;;19.31;74.39;100019.47;6254627;22;20336;-94
2023/07/08 03:44:09;;;;;;;9.40;3.88;;;;;;;19.28;74.94;100030.25;6254796;22;20002;-94
2023/07/08 03:46:34;;;;;;;15.70;4.60;;;;;;;19.22;75.14;100027.28;6254475;22;20012;-95
2023/07/08 03:49:00;;;;;;;13.65;4.30;;;;;;;19.19;76.17;100014.53;6254235;22;20452;-95
2023/07/08 03:51:37;;;;;;;9.10;4.60;;;;;;;19.30;75.87;100013.44;6254534;22;20009;-95
2023/07/08 03:54:03;;;;;;;12.13;4.68;;;;;;;19.33;75.80;100007.88;6254606;22;20075;-95
2023/07/08 03:56:28;;;;;;;13.48;5.20;;;;;;;19.29;76.18;100019.66;6151295;22;20016;-95
2023/07/08 03:58:54;;;;;;;9.00;4.20;;;;;;;19.20;76.69;100024.00;6254523;22;20403;-94
2023/07/08 04:01:23;;;;;;;8.70;4.72;;;;;;;19.18;76.96;100028.56;6150788;22;20085;-94
2023/07/08 04:03:50;;;;;;;11.32;4.43;;;;;;;19.10;77.92;100020.66;6254993;22;20010;-94
2023/07/08 04:06:15;;;;;;;10.48;5.38;;;;;;;19.12;77.95;100029.19;6151002;23;19993;-94
2023/07/08 04:08:40;;;;;;;8.45;4.10;;;;;;;19.05;78.44;100038.63;6151056;23;20110;-95
2023/07/08 04:11:06;;;;;;;8.35;4.28;;;;;;;18.99;79.18;100039.22;6150944;22;20451;-95
2023/07/08 04:13:32;;;;;;;10.75;5.05;;;;;;;18.97;79.29;100047.22;6254141;22;20390;-96
2023/07/08 04:16:04;;;;;;;8.10;3.58;;;;;;;19.04;78.99;100057.88;6254665;22;20010;-94
2023/07/08 04:18:29;;;;;;;10.57;4.70;;;;;;;19.01;79.85;100063.44;6254029;22;20006;-95
2023/07/08 04:20:54;;;;;;;10.50;4.43;;;;;;;19.03;79.48;100061.50;6253751;22;20032;-94
2023/07/08 04:23:20;;;;;;;6.80;3.97;;;;;;;19.03;79.79;100064.91;6150939;22;20002;-94
2023/07/08 04:25:47;;;;;;;9.82;5.20;;;;;;;19.01;80.65;100073.88;6151469;23;20013;-96
2023/07/08 04:28:13;;;;;;;11.38;5.35;;;;;;;19.00;81.22;100072.25;6150799;23;20451;-95
2023/07/08 04:30:40;;;;;;;14.05;4.53;;;;;;;19.07;80.79;100081.16;6150909;22;20006;-95
2023/07/08 04:33:12;;;;;;;12.65;4.40;;;;;;;19.07;80.87;100083.75;6151208;23;20029;-94
2023/07/08 04:35:38;;;;;;;9.13;4.13;;;;;;;19.13;81.06;100085.75;6253951;22;20009;-94
2023/07/08 04:38:21;;;;;;;8.75;4.72;;;;;;;19.13;80.87;100083.13;6150754;22;20002;-95
2023/07/08 04:40:47;;;;;;;8.57;4.90;;;;;;;19.15;80.93;100081.19;6254020;22;20005;-94
2023/07/08 04:43:12;;;;;;;9.23;4.15;;;;;;;19.16;81.16;100088.06;6150580;23;20006;-94
2023/07/08 04:45:40;;;;;;;9.30;4.25;;;;;;;19.24;80.86;100095.16;6150865;22;20028;-93
2023/07/08 04:48:12;;;;;;;7.30;4.00;;;;;;;19.22;82.50;100095.31;6254050;22;20014;-94
2023/07/08 04:50:42;;;;;;;7.65;4.80;;;;;;;19.25;82.78;100091.56;6253923;22;20084;-94
2023/07/08 04:53:08;;;;;;;9.07;4.47;;;;;;;19.33;81.55;100089.00;6151222;23;20002;-94
2023/07/08 04:55:36;;;;;;;6.65;4.30;;;;;;;19.42;80.52;100089.88;6150844;23;20012;-95
2023/07/08 04:58:02;;;;;;;11.00;4.55;;;;;;;19.44;79.61;100090.56;6150798;23;20063;-94
2023/07/08 05:00:27;;;;;;;10.93;4.07;;;;;;;19.52;79.20;100087.97;6253979;22;20405;-94
2023/07/08 05:02:53;;;;;;;10.20;4.53;;;;;;;19.57;78.86;100095.38;6253645;22;20017;-95
2023/07/08 05:05:19;;;;;;;7.32;3.75;;;;;;;19.57;78.27;100092.75;6253742;22;20344;-95
2023/07/08 05:07:45;;;;;;;10.15;3.80;;;;;;;19.61;77.75;100091.47;6150582;23;20001;-94
2023/07/08 05:10:10;;;;;;;11.70;4.88;;;;;;;19.65;77.46;100096.25;6253634;22;20009;-94
2023/07/08 05:12:36;;;;;;;8.90;3.83;;;;;;;19.73;77.25;100089.41;6253780;22;20364;-94
2023/07/08 05:15:02;;;;;;;6.88;3.50;;;;;;;19.75;76.71;100093.56;6253951;22;20016;-93
2023/07/08 05:17:27;;;;;;;6.75;4.03;;;;;;;19.73;77.92;100099.91;6253479;22;20068;-95
2023/07/08 05:19:54;;;;;;;11.07;3.53;;;;;;;19.70;79.22;100110.69;6150818;22;20001;-94
2023/07/08 05:22:24;;;;;;;5.80;3.78;;;;;;;19.57;78.41;100116.31;6253761;22;20001;-95
2023/07/08 05:24:52;;;;;;;8.00;3.17;;;;;;;19.47;78.02;100116.41;6150586;23;20008;-93
2023/07/08 05:27:19;;;;;;;7.32;4.07;;;;;;;19.51;78.12;100122.16;6253705;22;20009;-94
2023/07/08 05:29:46;;;;;;;7.75;3.20;;;;;;;19.50;78.35;100120.53;6253979;22;20025;-94
2023/07/08 05:32:11;;;;;;;7.22;3.72;;;;;;;19.58;76.99;100112.72;6253449;22;20006;-94
2023/07/08 05:34:37;;;;;;;11.13;3.50;;;;;;;19.38;78.27;100125.19;6253654;22;20076;-95
2023/07/08 05:37:03;;;;;;;9.60;4.75;;;;;;;19.37;78.57;100136.63;6253683;22;20409;-94
2023/07/08 05:39:30;;;;;;;9.18;3.53;;;;;;;19.30;78.72;100141.66;6253425;22;20010;-96
2023/07/08 05:41:55;;;;;;;6.65;4.07;;;;;;;19.27;78.93;100146.38;6253590;22;20033;-94
2023/07/08 05:44:20;;;;;;;6.90;4.18;;;;;;;19.23;79.66;100156.31;6253356;22;20009;-95
2023/07/08 05:46:46;;;;;;;8.50;3.45;;;;;;;19.23;79.51;100159.75;6253565;22;20678;-96
2023/07/08 05:49:11;;;;;;;8.77;4.07;;;;;;;19.25;79.81;100170.88;6252974;22;20010;-95
2023/07/08 05:51:37;;;;;;;13.13;4.32;;;;;;;19.16;79.84;100161.31;6253335;22;20305;-94
2023/07/08 05:54:03;;;;;;;8.98;4.05;;;;;;;19.16;80.04;100166.53;6253674;22;20036;-94
2023/07/08 05:56:30;;;;;;;6.45;3.17;;;;;;;19.16;80.44;100182.25;6149687;23;20009;-95
2023/07/08 05:58:56;;;;;;;7.55;3.53;;;;;;;19.11;80.75;100174.03;6150701;23;20088;-94
2023/07/08 06:01:21;;;;;;;11.50;3.53;;;;;;;19.09;81.45;100173.34;6253217;22;20037;-96
2023/07/08 06:03:47;;;;;;;10.80;3.38;;;;;;;19.14;81.21;100160.66;6253305;22;20496;-94
2023/07/08 06:06:13;;;;;;;12.10;2.97;;;;;;;19.08;81.71;100174.34;6253087;22;20013;-96
2023/07/08 06:08:39;;;;;;;6.47;3.17;;;;;;;19.18;81.66;100180.31;6253188;22;20020;-93
2023/07/08 06:11:04;;;;;;;8.57;3.00;;;;;;;19.14;82.21;100184.22;6253292;22;20027;-94
2023/07/08 06:13:30;;;;;;;11.63;3.40;;;;;;;19.06;85.19;100184.13;6253855;22;20332;-95
2023/07/08 06:15:55;;;;;;;15.35;4.45;;;;;;;19.03;89.98;100187.03;6253235;22;20006;-95
2023/07/08 06:18:21;;;;;;;6.40;3.10;;;;;;;19.03;95.85;100189.66;6150426;23;20486;-93
2023/07/08 06:20:54;;;;;;;7.60;2.92;;;;;;;18.96;96.61;100191.22;6252841;22;20002;-94
2023/07/08 06:23:20;;;;;;;6.85;2.88;;;;;;;18.94;97.84;100174.84;6150252;23;20005;-95
2023/07/08 06:25:45;;;;;;;10.77;3.30;;;;;;;19.03;98.47;100182.63;6253132;22;20002;-94
2023/07/08 06:28:10;;;;;;;8.05;3.25;;;;;;;19.20;98.73;100183.59;6252921;22;20014;-94
2023/07/08 06:30:37;;;;;;;7.70;3.13;;;;;;;19.41;99.69;100179.81;6252700;22;20024;-94
2023/07/08 06:33:03;;;;;;;8.57;3.28;;;;;;;19.69;97.17;100188.44;6252935;22;20013;-94
2023/07/08 06:35:28;;;;;;;7.88;2.85;;;;;;;20.87;87.70;100168.50;6150345;22;20005;-94
2023/07/08 06:37:53;;;;;;;13.48;3.33;;;;;;;21.51;82.42;100186.28;6150998;23;20006;-94
2023/07/08 06:40:19;;;;;;;9.82;3.30;;;;;;;20.58;90.77;100189.91;6253232;22;20519;-94
2023/07/08 06:42:45;;;;;;;12.25;3.38;;;;;;;20.26;92.82;100201.03;6253361;22;20001;-95
2023/07/08 06:45:11;;;;;;;8.90;2.90;;;;;;;20.15;93.55;100203.94;6150515;23;20585;-95
2023/07/08 06:47:36;;;;;;;9.73;3.70;;;;;;;20.05;94.96;100210.09;6150035;23;20008;-94
2023/07/08 06:50:02;;;;;;;6.20;3.25;;;;;;;19.98;97.21;100222.16;6150618;22;20317;-94
2023/07/08 06:52:33;;;;;;;7.55;2.60;;;;;;;19.81;99.29;100223.84;6252993;22;20001;-94
2023/07/08 06:54:59;;;;;;;10.65;3.45;;;;;;;19.88;99.40;100213.59;6253677;22;20436;-95
2023/07/08 06:57:25;;;;;;;11.48;2.88;;;;;;;19.85;99.63;100200.81;6150351;23;20027;-94
2023/07/08 06:59:50;;;;;;;6.22;3.20;;;;;;;19.81;100.00;100202.09;6252772;22;20031;-94
2023/07/08 07:02:16;;;;;;;10.07;2.78;;;;;;;19.63;100.00;100197.69;6253001;22;20021;-95
2023/07/08 07:04:42;;;;;;;11.90;3.58;;;;;;;19.83;100.00;100185.25;6252940;22;20083;-95
2023/07/08 07:07:07;;;;;;;12.27;3.35;;;;;;;19.80;100.00;100196.03;6150992;23;19998;-93
2023/07/08 07:09:32;;;;;;;10.30;3.53;;;;;;;19.75;100.00;100207.94;6151078;22;20006;-94
2023/07/08 07:11:58;;;;;;;13.32;4.03;;;;;;;19.89;100.00;100215.22;6254606;22;20333;-94
2023/07/08 07:14:23;;;;;;;8.07;3.30;;;;;;;20.01;100.00;100224.47;6151295;23;20010;-94
2023/07/08 07:16:49;;;;;;;10.57;3.28;;;;;;;19.95;99.71;100230.34;6254695;22;20012;-94
2023/07/08 07:19:14;;;;;;;7.13;3.47;;;;;;;20.00;100.00;100233.31;6151404;23;20068;-94
2023/07/08 07:21:39;;;;;;;8.75;3.10;;;;;;;19.96;100.00;100246.88;6151483;22;20005;-94
2023/07/08 07:24:06;;;;;;;6.88;2.80;;;;;;;19.96;99.51;100247.69;6254321;22;20024;-94
2023/07/08 07:26:32;;;;;;;5.90;2.85;;;;;;;19.96;100.00;100245.06;6254649;22;19997;-94
2023/07/08 07:28:58;;;;;;;8.27;3.58;;;;;;;19.77;99.92;100259.19;6151203;23;20063;-93
2023/07/08 07:31:23;;;;;;;9.57;3.20;;;;;;;19.84;100.00;100267.25;6254777;22;20010;-95
2023/07/08 07:33:48;;;;;;;11.20;3.50;;;;;;;19.86;100.00;100265.31;6254495;22;20433;-95
2023/07/08 07:36:14;;;;;;;10.57;4.03;;;;;;;19.79;100.00;100254.63;6151121;23;20001;-94
2023/07/08 07:38:39;;;;;;;12.05;2.92;;;;;;;19.80;100.00;100258.03;6254699;22;20002;-95
2023/07/08 07:41:06;;;;;;;9.85;3.20;;;;;;;19.76;99.80;100251.50;6151646;22;20424;-96
2023/07/08 07:43:33;;;;;;;8.45;2.63;;;;;;;19.82;100.00;100251.69;6255390;22;20029;-95
2023/07/08 07:45:59;;;;;;;9.68;2.88;;;;;;;19.77;98.81;100259.19;6254621;22;20013;-96
2023/07/08 07:48:24;;;;;;;6.90;2.85;;;;;;;19.69;100.00;100266.97;6254753;22;20086;-94
2023/07/08 07:50:51;;;;;;;6.75;2.72;;;;;;;19.64;100.00;100259.53;6254543;22;20006;-95
2023/07/08 07:53:17;;;;;;;8.07;3.20;;;;;;;19.58;100.00;100259.31;6254641;22;20002;-94
2023/07/08 07:55:42;;;;;;;7.30;2.42;;;;;;;19.51;99.20;100266.13;6254544;22;20033;-94
2023/07/08 07:58:08;;;;;;;5.90;2.33;;;;;;;19.58;99.17;100260.16;6254320;22;20014;-94
2023/07/08 08:00:34;;;;;;;7.60;2.47;;;;;;;19.55;100.00;100260.44;6254279;22;20020;-95
2023/07/08 08:02:59;;;;;;;10.95;3.05;;;;;;;19.44;100.00;100250.22;6254034;22;20005;-94
2023/07/08 08:05:25;;;;;;;8.90;2.60;;;;;;;19.40;100.00;100238.41;6254194;22;20012;-93
2023/07/08 08:07:50;;;;;;;6.38;3.08;;;;;;;19.44;100.00;100231.91;6254066;22;20076;-95
2023/07/08 08:10:15;;;;;;;8.02;2.85;;;;;;;19.36;100.00;100218.72;6254401;22;20005;-94
2023/07/08 08:12:41;;;;;;;8.95;3.38;;;;;;;19.37;100.00;100234.28;6254389;22;20029;-94
2023/07/08 08:15:07;;;;;;;7.97;2.78;;;;;;;19.32;100.00;100233.09;6254348;22;19998;-95
2023/07/08 08:17:32;;;;;;;8.38;2.70;;;;;;;19.33;100.00;100242.59;6151068;23;20077;-95
2023/07/08 08:19:58;;;;;;;6.50;2.75;;;;;;;19.27;100.00;100258.91;6253831;22;20005;-94
2023/07/08 08:22:23;;;;;;;5.53;2.30;;;;;;;19.22;100.00;100249.69;6254257;22;20447;-95
2023/07/08 08:24:49;;;;;;;14.55;3.42;;;;;;;19.11;100.00;100247.28;6254045;22;20002;-94
2023/07/08 08:27:15;;;;;;;7.75;2.83;;;;;;;19.02;100.00;100254.22;6254481;22;20313;-95
2023/07/08 08:29:40;;;;;;;11.48;2.90;;;;;;;18.94;100.00;100255.91;6253807;22;20528;-94
2023/07/08 08:32:06;;;;;;;10.30;2.83;;;;;;;18.91;100.00;100279.75;6150854;23;19998;-95
2023/07/08 08:34:31;;;;;;;9.57;3.10;;;;;;;18.90;100.00;100285.94;6254176;22;20002;-93
2023/07/08 08:36:57;;;;;;;9.05;3.40;;;;;;;18.82;100.00;100299.75;6253943;22;20029;-93
2023/07/08 08:39:24;;;;;;;8.82;2.78;;;;;;;18.78;100.00;100304.47;6253775;22;20013;-94
2023/07/08 08:41:53;;;;;;;8.50;2.47;;;;;;;18.84;100.00;100310.88;6253711;22;20025;-94
2023/07/08 08:44:44;;;;;;;6.80;2.88;;;;;;;18.77;100.00;100308.03;6253810;22;20097;-95
2023/07/08 08:47:22;;;;;;;11.35;2.67;;;;;;;18.86;100.00;100310.75;6150882;23;20081;-93
2023/07/08 08:49:56;;;;;;;9.77;4.57;;;;;;;18.65;100.00;100288.22;6150993;22;20037;-93
2023/07/08 08:52:22;;;;;;;7.75;2.83;;;;;;;18.53;100.00;100278.94;6150807;23;20420;-93
2023/07/08 08:54:50;;;;;;;7.78;3.35;;;;;;;18.59;100.00;100260.06;6150619;23;20082;-93
2023/07/08 08:57:28;;;;;;;7.40;2.80;;;;;;;18.69;100.00;100249.56;6150549;23;20404;-93
2023/07/08 08:59:55;;;;;;;5.57;2.60;;;;;;;18.67;100.00;100244.47;6150648;22;20006;-93
2023/07/08 09:02:40;;;;;;;8.98;3.55;;;;;;;18.63;100.00;100258.81;6150522;23;20457;-93
2023/07/08 09:05:09;;;;;;;7.05;3.42;;;;;;;18.61;100.00;100251.13;6150668;23;20072;-93
2023/07/08 09:07:44;;;;;;;7.47;2.83;;;;;;;18.62;100.00;100246.69;6150310;23;20029;-93
2023/07/08 09:10:19;;;;;;;6.55;2.60;;;;;;;18.75;100.00;100249.81;6150720;22;20002;-93
2023/07/08 09:12:45;;;;;;;6.40;3.25;;;;;;;18.96;100.00;100261.84;6253756;22;20005;-94
2023/07/08 09:15:14;;;;;;;8.07;3.53;;;;;;;18.96;100.00;100260.03;6150451;23;20041;-93
2023/07/08 09:17:40;;;;;;;8.25;3.08;;;;;;;19.03;100.00;100261.09;6253571;22;20370;-94
2023/07/08 09:20:22;;;;;;;9.52;3.10;;;;;;;19.15;100.00;100260.91;6150591;22;20002;-93
2023/07/08 09:22:51;;;;;;;9.38;3.00;;;;;;;19.18;100.00;100264.03;6150644;23;20088;-94
2023/07/08 09:25:32;;;;;;;9.00;3.03;;;;;;;19.42;100.00;100257.41;6150527;23;20001;-94
2023/07/08 09:27:58;;;;;;;9.65;2.70;;;;;;;19.49;100.00;100255.00;6253531;22;20344;-93
2023/07/08 09:30:24;;;;;;;7.93;3.22;;;;;;;19.57;100.00;100248.03;6253536;22;20006;-93
2023/07/08 09:32:50;;;;;;;13.88;3.40;;;;;;;19.62;100.00;100253.63;6253515;22;20013;-93
2023/07/08 09:35:25;;;;;;;10.88;2.85;;;;;;;19.99;100.00;100242.13;6253213;22;20005;-94
2023/07/08 09:37:51;;;;;;;9.05;2.65;;;;;;;20.32;100.00;100255.44;6253480;22;20009;-92
2023/07/08 09:40:17;;;;;;;9.13;2.83;;;;;;;20.62;100.00;100248.06;6253467;22;20077;-93
2023/07/08 09:42:44;;;;;;;10.57;2.95;;;;;;;21.03;100.00;100256.09;6150476;23;20002;-93
2023/07/08 09:45:15;;;;;;;7.10;3.08;;;;;;;21.20;100.00;100264.81;6150548;23;20073;-94
2023/07/08 09:47:43;;;;;;;6.95;2.72;;;;;;;21.42;98.12;100271.28;6253106;22;20432;-94
2023/07/08 09:50:28;;;;;;;8.57;2.47;;;;;;;21.51;94.80;100286.06;6253063;22;20092;-94
2023/07/08 09:52:57;;;;;;;8.82;3.28;;;;;;;21.49;91.45;100293.28;6253299;22;20009;-94
2023/07/08 09:55:23;;;;;;;7.03;3.42;;;;;;;21.50;90.62;100295.72;6150512;23;20439;-94
2023/07/08 09:57:51;;;;;;;4.93;2.90;;;;;;;21.46;90.40;100304.94;6150534;23;20006;-93
2023/07/08 10:00:19;;;;;;;12.98;2.72;;;;;;;21.51;93.69;100304.44;6150192;22;20005;-94
2023/07/08 10:02:49;;;;;;;8.00;3.08;;;;;;;21.34;92.22;100309.63;6150351;23;20005;-94
2023/07/08 10:05:17;;;;;;;9.68;2.80;;;;;;;20.92;90.48;100313.13;6253234;22;20036;-95
2023/07/08 10:07:44;;;;;;;8.68;2.88;;;;;;;20.91;92.71;100306.22;6150477;23;20059;-94
2023/07/08 10:10:15;;;;;;;5.28;2.28;;;;;;;20.79;91.66;100312.72;6253030;22;19998;-94
2023/07/08 10:12:45;;;;;;;11.48;2.72;;;;;;;20.50;93.41;100324.34;6253151;22;20013;-95
2023/07/08 10:15:21;;;;;;;9.30;2.55;;;;;;;20.46;96.81;100328.28;6253033;22;20074;-94
2023/07/08 10:17:47;;;;;;;14.35;2.50;;;;;;;20.32;99.61;100328.84;6253056;22;20040;-95
2023/07/08 10:20:13;;;;;;;6.68;2.78;;;;;;;20.38;99.66;100332.63;6253013;22;20006;-95
2023/07/08 10:22:52;;;;;;;8.82;2.80;;;;;;;20.37;100.00;100339.69;6252769;22;20348;-94
2023/07/08 10:25:49;;;;;;;8.27;2.97;;;;;;;20.20;100.00;100345.78;6253044;22;20063;-93
2023/07/08 10:28:25;;;;;;;12.07;3.30;;;;;;;20.08;100.00;100346.03;6150506;23;20088;-95
2023/07/08 10:31:01;;;;;;;11.75;2.50;;;;;;;20.10;100.00;100338.84;6252932;22;20036;-95
2023/07/08 10:33:40;;;;;;;8.30;2.55;;;;;;;20.14;100.00;100352.44;6150405;23;20036;-94
2023/07/08 10:36:11;;;;;;;10.48;3.05;;;;;;;20.15;100.00;100353.28;6253186;22;20009;-94
2023/07/08 10:39:15;;;;;;;8.88;2.90;;;;;;;20.23;100.00;100351.53;6253063;22;20009;-95
2023/07/08 10:41:57;;;;;;;11.85;3.20;;;;;;;20.34;100.00;100357.50;6253550;22;20013;-93
2023/07/08 10:44:34;;;;;;;11.55;3.75;;;;;;;20.40;100.00;100365.59;6252688;22;20005;-94
2023/07/08 10:47:22;;;;;;;7.85;2.90;;;;;;;20.52;100.00;100363.53;6150376;23;20010;-94
2023/07/08 10:50:14;;;;;;;7.10;2.88;;;;;;;20.59;99.82;100366.41;6252731;22;20012;-94
2023/07/08 10:52:42;;;;;;;5.95;2.78;;;;;;;20.43;99.69;100359.22;6252113;22;20005;-96
2023/07/08 10:55:07;;;;;;;8.23;2.78;;;;;;;20.70;99.32;100358.25;6253173;22;20013;-95
2023/07/08 10:58:13;;;;;;;8.93;3.35;;;;;;;20.77;98.41;100369.75;6150099;23;20001;-95
2023/07/08 11:01:05;;;;;;;7.07;3.00;;;;;;;20.82;97.04;100364.06;6252999;22;20436;-94
2023/07/08 11:03:43;;;;;;;5.30;2.47;;;;;;;20.87;97.25;100362.63;6252890;22;20006;-94
2023/07/08 11:06:34;;;;;;;8.80;2.83;;;;;;;20.86;97.36;100355.72;6252874;22;20054;-95
2023/07/08 11:09:04;;;;;;;6.20;2.40;;;;;;;21.06;96.63;100361.53;6253014;22;20033;-94
2023/07/08 11:11:38;;;;;;;9.18;3.00;;;;;;;20.92;96.09;100367.38;6252679;22;20016;-94
2023/07/08 11:14:12;;;;;;;10.10;3.00;;;;;;;20.99;95.64;100375.44;6252976;22;20013;-94
2023/07/08 11:16:48;;;;;;;11.93;3.65;;;;;;;20.99;95.16;100388.56;6252759;22;20051;-94
2023/07/08 11:19:37;;;;;;;12.02;3.63;;;;;;;20.98;94.54;100390.38;6150089;23;20391;-94
2023/07/08 11:22:10;;;;;;;10.63;3.88;;;;;;;21.08;92.96;100391.06;6251361;22;20029;-95
2023/07/08 11:24:48;;;;;;;10.05;4.07;;;;;;;20.93;92.08;100384.78;6252561;22;20008;-96
2023/07/08 11:27:26;;;;;;;10.07;3.20;;;;;;;20.91;94.01;100390.16;6253027;22;20002;-94
2023/07/08 11:29:51;;;;;;;9.15;2.88;;;;;;;20.89;94.67;100397.38;6149703;22;20432;-96